Time;durP1;ratioP1;P1;durP2;ratioP2;P2;SDS_P1;SDS_P2;PMS_P1;PMS_P2;Temp;Humidity;BMP_temperature;BMP_pressure;BME280_temperature;BME280_humidity;BME280_pressure;Samples;Min_cycle;Max_cycle;Signal;HPM_P1;HPM_P2
2021/09/22 00:01:24;;;;;;;;;;;17.00;92.40;;;;;;5110674;28;19973;-74
2021/09/22 00:03:50;;;;;;;;;;;17.10;92.60;;;;;;5092408;28;19911;-75
2021/09/22 00:06:15;;;;;;;;;;;17.00;92.30;;;;;;5110640;28;20092;-76
2021/09/22 00:08:41;;;;;;;;;;;17.10;92.30;;;;;;5110471;28;19981;-76
2021/09/22 00:11:06;;;;;;;;;;;17.10;92.30;;;;;;5110183;28;19988;-74
2021/09/22 00:13:32;;;;;;;;;;;17.10;92.20;;;;;;5110560;28;19914;-74
2021/09/22 00:15:58;;;;;;;;;;;17.10;92.20;;;;;;5110416;28;19919;-76
2021/09/22 00:18:23;;;;;;;;;;;17.10;92.20;;;;;;5110310;28;19907;-74
2021/09/22 00:20:49;;;;;;;;;;;17.10;92.20;;;;;;5110343;28;19908;-78
2021/09/22 00:23:14;;;;;;;;;;;17.00;92.20;;;;;;5110310;28;19915;-75
2021/09/22 00:25:40;;;;;;;;;;;17.00;92.20;;;;;;5110213;28;19912;-74
2021/09/22 00:28:07;;;;;;;;;;;17.10;92.20;;;;;;5110238;28;19916;-74
2021/09/22 00:30:33;;;;;;;;;;;17.10;92.30;;;;;;5110083;28;20285;-73
2021/09/22 00:33:00;;;;;;;;;;;17.10;92.20;;;;;;5109166;28;19911;-75
2021/09/22 00:35:26;;;;;;;;;;;17.10;92.20;;;;;;5109638;28;19907;-74
2021/09/22 00:37:51;;;;;;;;;;;17.10;92.20;;;;;;5091739;28;20420;-76
2021/09/22 00:40:17;;;;;;;;;;;17.10;92.20;;;;;;5091485;28;19915;-75
2021/09/22 00:42:42;;;;;;;;;;;17.10;92.20;;;;;;5109810;28;19908;-77
2021/09/22 00:45:12;;;;;;;;;;;17.10;92.20;;;;;;5109750;28;19908;-77
2021/09/22 00:47:38;;;;;;;;;;;17.20;92.20;;;;;;5109637;28;19922;-74
2021/09/22 00:50:04;;;;;;;;;;;17.10;92.20;;;;;;5110092;28;19991;-73
2021/09/22 00:52:29;;;;;;;;;;;17.20;92.20;;;;;;5109685;28;20354;-74
2021/09/22 00:54:55;;;;;;;;;;;17.10;92.20;;;;;;5109564;28;19908;-77
2021/09/22 00:57:21;;;;;;;;;;;17.10;92.20;;;;;;5109514;28;19908;-75
2021/09/22 00:59:47;;;;;;;;;;;17.10;92.20;;;;;;5109421;28;19919;-75
2021/09/22 01:02:12;;;;;;;;;;;17.10;92.20;;;;;;5109355;28;19986;-73
2021/09/22 01:04:39;;;;;;;;;;;17.20;92.20;;;;;;5109765;28;19941;-75
2021/09/22 01:07:05;;;;;;;;;;;17.20;92.10;;;;;;5109474;28;19908;-76
2021/09/22 01:09:30;;;;;;;;;;;17.20;92.10;;;;;;5090874;28;19922;-75
2021/09/22 01:11:56;;;;;;;;;;;17.20;92.00;;;;;;5109364;28;20269;-74
2021/09/22 01:14:22;;;;;;;;;;;17.20;92.00;;;;;;5109311;28;19908;-76
2021/09/22 01:16:48;;;;;;;;;;;17.20;92.00;;;;;;5109204;28;20382;-74
2021/09/22 01:19:14;;;;;;;;;;;17.20;92.00;;;;;;5109135;28;19907;-75
2021/09/22 01:21:46;;;;;;;;;;;17.20;91.90;;;;;;5109116;28;19912;-76
2021/09/22 01:24:11;;;;;;;;;;;17.20;92.00;;;;;;5109171;28;19904;-76
2021/09/22 01:26:37;;;;;;;;;;;17.20;92.00;;;;;;5109071;28;19914;-73
2021/09/22 01:29:03;;;;;;;;;;;17.10;92.10;;;;;;5108973;28;19956;-76
2021/09/22 01:31:28;;;;;;;;;;;17.10;92.20;;;;;;5108817;28;20298;-75
2021/09/22 01:33:59;;;;;;;;;;;17.00;92.30;;;;;;5108952;28;20382;-74
2021/09/22 01:36:24;;;;;;;;;;;17.00;92.30;;;;;;5090655;28;19934;-74
2021/09/22 01:38:50;;;;;;;;;;;17.00;92.30;;;;;;5108876;28;19943;-75
2021/09/22 01:41:15;;;;;;;;;;;17.00;92.30;;;;;;5090537;28;19915;-74
2021/09/22 01:43:41;;;;;;;;;;;17.00;92.30;;;;;;5108767;28;19907;-75
2021/09/22 01:46:08;;;;;;;;;;;17.00;92.30;;;;;;5108347;28;19911;-75
2021/09/22 01:48:33;;;;;;;;;;;17.00;92.30;;;;;;5108577;28;19996;-75
2021/09/22 01:51:00;;;;;;;;;;;17.00;92.30;;;;;;5108652;28;20451;-75
2021/09/22 01:53:26;;;;;;;;;;;17.00;92.30;;;;;;5108962;28;20262;-75
2021/09/22 01:55:53;;;;;;;;;;;17.00;92.30;;;;;;5090385;28;19912;-77
2021/09/22 01:58:18;;;;;;;;;;;17.00;92.40;;;;;;5108504;28;19911;-75
2021/09/22 02:00:44;;;;;;;;;;;17.00;92.40;;;;;;5108553;28;19903;-74
2021/09/22 02:03:11;;;;;;;;;;;17.00;92.40;;;;;;5108485;28;19991;-74
2021/09/22 02:05:37;;;;;;;;;;;17.00;92.40;;;;;;5108526;28;19914;-77
2021/09/22 02:08:02;;;;;;;;;;;17.00;92.30;;;;;;5108423;28;19911;-75
2021/09/22 02:10:28;;;;;;;;;;;17.00;92.40;;;;;;5108287;28;20296;-74
2021/09/22 02:12:54;;;;;;;;;;;17.00;92.40;;;;;;5108403;28;19911;-75
2021/09/22 02:15:19;;;;;;;;;;;17.00;92.50;;;;;;5108449;28;19907;-74
2021/09/22 02:17:45;;;;;;;;;;;16.90;92.40;;;;;;5108432;28;20110;-76
2021/09/22 02:20:11;;;;;;;;;;;17.00;92.50;;;;;;5108502;28;20285;-75
2021/09/22 02:22:37;;;;;;;;;;;16.90;92.40;;;;;;5108277;28;20350;-75
2021/09/22 02:25:03;;;;;;;;;;;16.90;92.40;;;;;;5108347;28;19950;-75
2021/09/22 02:27:29;;;;;;;;;;;16.90;92.40;;;;;;5108230;28;19908;-75
2021/09/22 02:29:55;;;;;;;;;;;16.90;92.40;;;;;;5108322;28;19942;-75
2021/09/22 02:32:20;;;;;;;;;;;16.90;92.50;;;;;;5108231;28;19949;-77
2021/09/22 02:34:46;;;;;;;;;;;16.90;92.50;;;;;;5090293;28;19920;-74
2021/09/22 02:37:11;;;;;;;;;;;16.90;92.60;;;;;;5108266;28;19915;-74
2021/09/22 02:39:37;;;;;;;;;;;16.90;92.60;;;;;;5108467;28;19921;-75
2021/09/22 02:42:03;;;;;;;;;;;16.90;92.60;;;;;;5108193;28;19987;-76
2021/09/22 02:44:28;;;;;;;;;;;16.90;92.60;;;;;;5108227;28;20289;-75
2021/09/22 02:46:54;;;;;;;;;;;16.90;92.70;;;;;;5108158;28;19919;-76
2021/09/22 02:49:19;;;;;;;;;;;16.80;92.60;;;;;;5108211;28;19959;-74
2021/09/22 02:51:45;;;;;;;;;;;16.90;92.60;;;;;;5089691;28;19911;-76
2021/09/22 02:54:11;;;;;;;;;;;16.80;92.60;;;;;;5108103;28;19950;-75
2021/09/22 02:56:36;;;;;;;;;;;16.90;92.60;;;;;;5108726;28;20006;-74
2021/09/22 02:59:02;;;;;;;;;;;16.90;92.60;;;;;;5111885;28;19933;-74
2021/09/22 03:01:28;;;;;;;;;;;16.90;92.60;;;;;;5111795;28;19912;-75
2021/09/22 03:03:53;;;;;;;;;;;16.80;92.60;;;;;;5093641;28;19929;-75
2021/09/22 03:06:19;;;;;;;;;;;16.80;92.60;;;;;;5111894;28;20267;-74
2021/09/22 03:08:44;;;;;;;;;;;16.80;92.60;;;;;;5111580;28;19925;-73
2021/09/22 03:11:10;;;;;;;;;;;16.80;92.60;;;;;;5111485;28;19926;-76
2021/09/22 03:13:36;;;;;;;;;;;16.80;92.60;;;;;;5111673;28;19904;-74
2021/09/22 03:16:03;;;;;;;;;;;16.80;92.70;;;;;;5111485;28;20009;-78
2021/09/22 03:18:28;;;;;;;;;;;16.80;92.60;;;;;;5111585;28;19995;-79
2021/09/22 03:20:54;;;;;;;;;;;16.80;92.90;;;;;;5111601;28;20379;-73
2021/09/22 03:23:19;;;;;;;;;;;16.80;92.60;;;;;;5111517;28;19911;-73
2021/09/22 03:25:45;;;;;;;;;;;16.80;92.60;;;;;;5111507;28;19903;-75
2021/09/22 03:28:11;;;;;;;;;;;16.90;92.60;;;;;;5092959;28;20368;-76
2021/09/22 03:30:36;;;;;;;;;;;16.90;92.60;;;;;;5111305;28;19912;-72
2021/09/22 03:33:02;;;;;;;;;;;16.90;92.50;;;;;;5111417;28;19912;-74
2021/09/22 03:35:28;;;;;;;;;;;16.90;92.50;;;;;;5111341;28;19968;-77
2021/09/22 03:37:53;;;;;;;;;;;16.90;92.40;;;;;;5111248;28;19911;-74
2021/09/22 03:40:19;;;;;;;;;;;16.90;92.40;;;;;;5111166;28;19939;-74
2021/09/22 03:42:44;;;;;;;;;;;16.90;92.40;;;;;;5092820;28;19915;-73
2021/09/22 03:45:10;;;;;;;;;;;16.90;92.40;;;;;;5111020;28;19912;-77
2021/09/22 03:47:36;;;;;;;;;;;16.90;92.40;;;;;;5110980;28;20374;-76
2021/09/22 03:50:02;;;;;;;;;;;16.90;92.40;;;;;;5111026;28;19903;-77
2021/09/22 03:52:27;;;;;;;;;;;16.90;92.40;;;;;;5111102;28;19904;-75
2021/09/22 03:54:53;;;;;;;;;;;16.80;92.40;;;;;;5111010;28;20368;-74
2021/09/22 03:57:18;;;;;;;;;;;16.80;92.30;;;;;;5110776;28;19915;-74
2021/09/22 03:59:44;;;;;;;;;;;16.80;92.40;;;;;;5075359;28;19915;-75
2021/09/22 04:02:10;;;;;;;;;;;16.80;92.40;;;;;;5110583;28;19926;-74
2021/09/22 04:04:35;;;;;;;;;;;16.80;92.50;;;;;;5110668;28;20271;-75
2021/09/22 04:07:01;;;;;;;;;;;16.80;92.40;;;;;;5092334;28;19908;-74
2021/09/22 04:09:26;;;;;;;;;;;16.70;92.50;;;;;;5109993;28;19908;-74
2021/09/22 04:11:52;;;;;;;;;;;16.70;92.50;;;;;;5075322;28;19916;-76
2021/09/22 04:14:18;;;;;;;;;;;16.60;92.50;;;;;;5092300;28;19911;-74
2021/09/22 04:16:43;;;;;;;;;;;16.60;92.50;;;;;;5110498;28;19960;-74
2021/09/22 04:19:09;;;;;;;;;;;16.60;92.50;;;;;;5110472;28;20042;-74
2021/09/22 04:21:35;;;;;;;;;;;16.60;92.50;;;;;;5110442;28;19929;-76
2021/09/22 04:24:01;;;;;;;;;;;16.60;92.50;;;;;;5110445;28;19911;-75
2021/09/22 04:26:27;;;;;;;;;;;16.60;92.50;;;;;;5110262;28;19903;-75
2021/09/22 04:28:52;;;;;;;;;;;16.60;92.50;;;;;;5110216;28;20006;-74
2021/09/22 04:31:18;;;;;;;;;;;16.50;92.50;;;;;;5110123;28;20346;-74
2021/09/22 04:33:44;;;;;;;;;;;16.50;92.50;;;;;;5110458;28;19939;-73
2021/09/22 04:36:10;;;;;;;;;;;16.50;92.50;;;;;;5109973;28;20277;-75
2021/09/22 04:38:35;;;;;;;;;;;16.50;92.50;;;;;;5110147;28;19908;-77
2021/09/22 04:41:01;;;;;;;;;;;16.50;92.50;;;;;;5109943;28;19908;-75
2021/09/22 04:43:27;;;;;;;;;;;16.50;92.50;;;;;;5109926;28;19906;-75
2021/09/22 04:45:52;;;;;;;;;;;16.50;92.60;;;;;;5109908;28;19908;-74
2021/09/22 04:48:18;;;;;;;;;;;16.50;92.60;;;;;;5109879;28;19915;-75
2021/09/22 04:50:43;;;;;;;;;;;16.50;92.50;;;;;;5109963;28;19908;-74
2021/09/22 04:53:09;;;;;;;;;;;16.50;92.50;;;;;;5109868;28;20010;-74
2021/09/22 04:55:35;;;;;;;;;;;16.50;92.50;;;;;;5091494;28;20194;-76
2021/09/22 04:58:00;;;;;;;;;;;16.50;92.50;;;;;;5109666;28;20350;-74
2021/09/22 05:00:26;;;;;;;;;;;16.50;92.50;;;;;;5109606;28;19995;-76
2021/09/22 05:02:51;;;;;;;;;;;16.50;92.50;;;;;;5109648;28;19908;-75
2021/09/22 05:05:17;;;;;;;;;;;16.60;92.60;;;;;;5109380;28;19937;-75
2021/09/22 05:07:43;;;;;;;;;;;16.60;92.50;;;;;;5109295;28;19907;-74
2021/09/22 05:10:08;;;;;;;;;;;16.50;92.50;;;;;;5109165;28;19960;-75
2021/09/22 05:12:34;;;;;;;;;;;16.50;92.50;;;;;;5109290;28;20390;-74
2021/09/22 05:15:00;;;;;;;;;;;16.60;92.50;;;;;;5109395;28;20002;-77
2021/09/22 05:17:25;;;;;;;;;;;16.60;92.50;;;;;;5090866;28;19908;-75
2021/09/22 05:19:51;;;;;;;;;;;16.60;92.50;;;;;;5108351;28;19922;-76
2021/09/22 05:22:16;;;;;;;;;;;16.60;92.50;;;;;;5090863;28;19911;-75
2021/09/22 05:24:42;;;;;;;;;;;16.60;92.40;;;;;;5109152;28;19930;-77
2021/09/22 05:27:08;;;;;;;;;;;16.60;92.30;;;;;;5109010;28;19930;-78
2021/09/22 05:29:34;;;;;;;;;;;16.50;92.20;;;;;;5108798;28;19947;-73
2021/09/22 05:32:00;;;;;;;;;;;16.50;92.20;;;;;;5108661;28;19911;-74
2021/09/22 05:34:25;;;;;;;;;;;16.40;92.10;;;;;;5109082;28;19904;-76
2021/09/22 05:36:51;;;;;;;;;;;16.20;92.10;;;;;;5109050;28;19915;-76
2021/09/22 05:39:17;;;;;;;;;;;16.10;92.20;;;;;;5090950;28;19957;-75
2021/09/22 05:41:42;;;;;;;;;;;16.10;92.30;;;;;;5090361;28;19908;-76
2021/09/22 05:44:08;;;;;;;;;;;16.00;92.40;;;;;;5108702;28;20330;-76
2021/09/22 05:46:33;;;;;;;;;;;16.00;92.40;;;;;;5108826;28;19910;-75
2021/09/22 05:48:59;;;;;;;;;;;15.90;92.50;;;;;;5108869;28;19911;-73
2021/09/22 05:51:24;;;;;;;;;;;15.90;92.60;;;;;;5109040;28;19972;-75
2021/09/22 05:53:51;;;;;;;;;;;15.90;92.60;;;;;;5090327;28;19951;-76
2021/09/22 05:56:17;;;;;;;;;;;15.90;92.60;;;;;;5108561;28;20331;-75
2021/09/22 05:58:42;;;;;;;;;;;15.80;92.60;;;;;;5090381;28;19912;-74
2021/09/22 06:01:08;;;;;;;;;;;15.80;92.60;;;;;;5108509;28;20397;-74
2021/09/22 06:03:34;;;;;;;;;;;15.80;92.60;;;;;;5090294;28;19908;-74
2021/09/22 06:06:00;;;;;;;;;;;15.80;92.60;;;;;;5090198;28;19914;-75
2021/09/22 06:08:25;;;;;;;;;;;15.80;92.60;;;;;;5108523;28;19907;-75
2021/09/22 06:10:51;;;;;;;;;;;15.80;92.60;;;;;;5107825;28;19927;-75
2021/09/22 06:13:17;;;;;;;;;;;15.80;92.50;;;;;;5108129;28;19915;-74
2021/09/22 06:15:42;;;;;;;;;;;15.80;92.50;;;;;;5090001;28;19988;-75
2021/09/22 06:18:08;;;;;;;;;;;15.80;92.50;;;;;;5107903;28;19918;-76
2021/09/22 06:20:33;;;;;;;;;;;15.80;92.50;;;;;;5108095;28;19908;-74
2021/09/22 06:22:59;;;;;;;;;;;15.80;92.40;;;;;;5090184;28;19919;-74
2021/09/22 06:25:25;;;;;;;;;;;15.80;92.40;;;;;;5108055;28;19904;-74
2021/09/22 06:27:50;;;;;;;;;;;15.80;92.40;;;;;;5108351;28;19908;-77
2021/09/22 06:30:16;;;;;;;;;;;15.90;92.60;;;;;;5108395;28;20274;-74
2021/09/22 06:32:42;;;;;;;;;;;15.90;92.40;;;;;;5094418;28;19956;-74
2021/09/22 06:35:08;;;;;;;;;;;16.00;92.30;;;;;;5112672;28;20243;-74
2021/09/22 06:37:34;;;;;;;;;;;16.10;92.30;;;;;;5094188;28;19994;-75
2021/09/22 06:39:59;;;;;;;;;;;16.10;92.20;;;;;;5112758;28;20310;-74
2021/09/22 06:42:25;;;;;;;;;;;16.20;92.10;;;;;;5112586;28;20002;-76
2021/09/22 06:44:50;;;;;;;;;;;16.20;92.00;;;;;;5093866;28;19916;-74
2021/09/22 06:47:16;;;;;;;;;;;16.30;92.00;;;;;;5112137;28;19975;-76
2021/09/22 06:49:41;;;;;;;;;;;16.30;91.90;;;;;;5112292;28;19915;-75
2021/09/22 06:52:07;;;;;;;;;;;16.40;91.80;;;;;;5111895;28;20327;-75
2021/09/22 06:54:33;;;;;;;;;;;16.40;91.80;;;;;;5111589;28;20302;-74
2021/09/22 06:56:59;;;;;;;;;;;16.50;91.80;;;;;;5093095;28;20368;-75
2021/09/22 06:59:25;;;;;;;;;;;16.60;91.70;;;;;;5110617;28;19915;-73
2021/09/22 07:01:51;;;;;;;;;;;16.70;91.60;;;;;;5111355;28;19907;-74
2021/09/22 07:04:16;;;;;;;;;;;16.70;91.50;;;;;;5093328;28;20002;-74
2021/09/22 07:06:42;;;;;;;;;;;16.70;91.30;;;;;;5111482;28;19904;-74
2021/09/22 07:09:08;;;;;;;;;;;16.70;91.30;;;;;;5111166;28;20288;-75
2021/09/22 07:11:34;;;;;;;;;;;16.70;91.20;;;;;;5110824;28;19915;-75
2021/09/22 07:13:59;;;;;;;;;;;16.60;91.20;;;;;;5093306;28;19918;-75
2021/09/22 07:16:25;;;;;;;;;;;16.60;91.10;;;;;;5093432;28;19904;-77
2021/09/22 07:18:50;;;;;;;;;;;16.50;91.10;;;;;;5093072;28;20344;-76
2021/09/22 07:21:16;;;;;;;;;;;16.50;91.30;;;;;;5111519;28;20386;-74
2021/09/22 07:23:42;;;;;;;;;;;16.40;91.10;;;;;;5092902;28;20273;-75
2021/09/22 07:26:07;;;;;;;;;;;16.40;91.20;;;;;;5110945;28;19940;-75
2021/09/22 07:28:34;;;;;;;;;;;16.50;91.30;;;;;;5110964;28;20373;-75
2021/09/22 07:31:00;;;;;;;;;;;16.60;91.30;;;;;;5110901;28;19908;-76
2021/09/22 07:33:25;;;;;;;;;;;16.70;91.10;;;;;;5110478;28;19930;-75
2021/09/22 07:35:51;;;;;;;;;;;16.90;91.10;;;;;;5110733;28;19904;-74
2021/09/22 07:38:17;;;;;;;;;;;17.10;91.00;;;;;;5092378;28;19914;-76
2021/09/22 07:40:43;;;;;;;;;;;17.40;91.00;;;;;;5110412;28;20292;-75
2021/09/22 07:43:09;;;;;;;;;;;17.80;90.80;;;;;;5109915;28;19903;-74
2021/09/22 07:45:35;;;;;;;;;;;18.00;90.50;;;;;;5110743;28;20368;-75
2021/09/22 07:48:00;;;;;;;;;;;18.20;90.20;;;;;;5110260;28;19916;-75
2021/09/22 07:50:26;;;;;;;;;;;18.40;89.90;;;;;;5110070;28;20290;-75
2021/09/22 07:52:52;;;;;;;;;;;18.40;89.50;;;;;;5110904;28;19964;-73
2021/09/22 07:55:18;;;;;;;;;;;18.60;89.60;;;;;;5110357;28;19908;-74
2021/09/22 07:57:43;;;;;;;;;;;18.90;89.00;;;;;;5110371;28;19908;-75
2021/09/22 08:00:10;;;;;;;;;;;19.00;88.30;;;;;;5110770;28;19908;-75
2021/09/22 08:02:36;;;;;;;;;;;19.20;88.10;;;;;;5110243;28;20006;-76
2021/09/22 08:05:01;;;;;;;;;;;19.40;87.30;;;;;;5110508;28;20046;-74
2021/09/22 08:07:27;;;;;;;;;;;19.40;86.60;;;;;;5111217;28;19930;-75
2021/09/22 08:09:52;;;;;;;;;;;19.50;86.50;;;;;;5110985;28;20013;-77
2021/09/22 08:12:18;;;;;;;;;;;19.70;86.40;;;;;;5092725;28;19919;-76
2021/09/22 08:14:43;;;;;;;;;;;19.90;86.00;;;;;;5110753;28;20387;-75
2021/09/22 08:17:12;;;;;;;;;;;20.30;85.40;;;;;;5110593;28;19957;-78
2021/09/22 08:19:38;;;;;;;;;;;20.60;83.60;;;;;;5092392;28;20018;-78
2021/09/22 08:22:04;;;;;;;;;;;20.80;83.10;;;;;;5092436;28;19915;-76
2021/09/22 08:24:30;;;;;;;;;;;20.90;82.50;;;;;;5092557;28;19907;-78
2021/09/22 08:26:56;;;;;;;;;;;21.50;82.60;;;;;;5110652;28;19911;-78
2021/09/22 08:29:22;;;;;;;;;;;21.80;80.40;;;;;;5091501;28;19933;-76
2021/09/22 08:31:48;;;;;;;;;;;22.00;80.60;;;;;;5091592;28;20045;-75
2021/09/22 08:34:13;;;;;;;;;;;22.40;79.30;;;;;;5110001;28;19914;-77
2021/09/22 08:36:40;;;;;;;;;;;22.60;78.40;;;;;;5110050;28;19908;-77
2021/09/22 08:39:05;;;;;;;;;;;22.50;76.90;;;;;;5091692;28;20343;-75
2021/09/22 08:41:31;;;;;;;;;;;22.30;76.10;;;;;;5109528;28;19964;-75
2021/09/22 08:44:03;;;;;;;;;;;22.10;76.00;;;;;;5110035;28;19915;-75
2021/09/22 08:46:32;;;;;;;;;;;22.00;77.00;;;;;;5109640;28;19926;-76
2021/09/22 08:49:05;;;;;;;;;;;22.70;77.90;;;;;;5091235;28;19955;-76
2021/09/22 08:51:31;;;;;;;;;;;23.40;76.40;;;;;;5109713;28;20013;-75
2021/09/22 08:53:57;;;;;;;;;;;23.70;75.20;;;;;;5090600;28;20002;-76
2021/09/22 08:56:23;;;;;;;;;;;23.70;74.30;;;;;;5090533;28;19976;-76
2021/09/22 08:58:50;;;;;;;;;;;24.30;75.50;;;;;;5091394;28;20324;-77
2021/09/22 09:01:16;;;;;;;;;;;25.30;75.40;;;;;;5109549;28;19908;-77
2021/09/22 09:03:42;;;;;;;;;;;26.20;73.90;;;;;;5109488;28;19960;-76
2021/09/22 09:06:25;;;;;;;;;;;26.80;72.50;;;;;;5109841;28;20262;-76
2021/09/22 09:08:52;;;;;;;;;;;27.40;70.70;;;;;;5109776;28;20022;-77
2021/09/22 09:11:25;;;;;;;;;;;27.90;68.90;;;;;;5090774;28;19951;-78
2021/09/22 09:13:52;;;;;;;;;;;28.10;66.50;;;;;;5109376;28;19950;-76
2021/09/22 09:16:18;;;;;;;;;;;28.40;64.90;;;;;;5109711;28;20418;-78
2021/09/22 09:18:48;;;;;;;;;;;28.50;64.10;;;;;;5109775;28;19907;-77
2021/09/22 09:21:14;;;;;;;;;;;28.10;62.80;;;;;;5109634;28;20267;-76
2021/09/22 09:23:50;;;;;;;;;;;27.60;62.60;;;;;;5090985;28;19904;-77
2021/09/22 09:26:18;;;;;;;;;;;26.90;62.30;;;;;;5109435;28;20410;-75
2021/09/22 09:28:47;;;;;;;;;;;26.90;62.80;;;;;;5090296;28;20002;-77
2021/09/22 09:31:13;;;;;;;;;;;27.20;62.10;;;;;;5109361;28;19912;-76
2021/09/22 09:33:41;;;;;;;;;;;27.70;61.80;;;;;;5073568;28;19994;-76
2021/09/22 09:36:16;;;;;;;;;;;28.00;61.50;;;;;;5108940;28;19904;-77
2021/09/22 09:38:53;;;;;;;;;;;28.40;61.70;;;;;;5090858;28;19904;-77
2021/09/22 09:41:25;;;;;;;;;;;29.00;61.40;;;;;;5109103;28;19912;-76
2021/09/22 09:43:51;;;;;;;;;;;29.50;60.80;;;;;;5110636;28;19903;-78
2021/09/22 09:46:22;;;;;;;;;;;29.90;60.00;;;;;;5110475;28;19972;-76
2021/09/22 09:48:58;;;;;;;;;;;30.30;60.30;;;;;;5090929;28;20478;-77
2021/09/22 09:51:34;;;;;;;;;;;30.60;59.50;;;;;;5109602;28;19908;-75
2021/09/22 09:54:03;;;;;;;;;;;30.80;58.80;;;;;;5109547;28;19938;-76
2021/09/22 09:56:29;;;;;;;;;;;30.90;57.80;;;;;;5108846;28;19917;-76
2021/09/22 09:58:56;;;;;;;;;;;31.00;57.70;;;;;;5109278;28;19916;-77
2021/09/22 10:01:34;;;;;;;;;;;31.00;57.50;;;;;;5087867;28;19912;-77
2021/09/22 10:04:00;;;;;;;;;;;31.20;57.00;;;;;;5109108;28;20522;-75
2021/09/22 10:06:26;;;;;;;;;;;31.30;56.50;;;;;;5107606;28;19943;-76
2021/09/22 10:08:51;;;;;;;;;;;31.30;55.70;;;;;;5098497;28;20008;-74
2021/09/22 10:11:17;;;;;;;;;;;31.40;55.90;;;;;;5097840;28;19927;-75
2021/09/22 10:13:42;;;;;;;;;;;31.40;55.60;;;;;;5100411;28;20345;-75
2021/09/22 10:16:08;;;;;;;;;;;31.60;55.10;;;;;;5090631;28;19947;-75
2021/09/22 10:18:34;;;;;;;;;;;31.40;53.60;;;;;;5103259;28;19927;-76
2021/09/22 10:21:00;;;;;;;;;;;31.20;53.60;;;;;;5103229;28;20285;-76
2021/09/22 10:23:26;;;;;;;;;;;31.20;53.90;;;;;;5101859;28;19911;-76
2021/09/22 10:25:52;;;;;;;;;;;31.20;53.10;;;;;;5102927;28;19965;-76
2021/09/22 10:28:32;;;;;;;;;;;31.30;54.00;;;;;;5102956;28;19972;-77
2021/09/22 10:30:57;;;;;;;;;;;31.60;54.00;;;;;;5105657;28;19908;-75
2021/09/22 10:33:24;;;;;;;;;;;31.90;53.90;;;;;;5107557;28;20251;-76
2021/09/22 10:35:56;;;;;;;;;;;32.10;53.40;;;;;;5108879;28;19929;-75
2021/09/22 10:38:28;;;;;;;;;;;32.20;53.60;;;;;;5108256;28;19942;-77
2021/09/22 10:40:59;;;;;;;;;;;32.30;53.20;;;;;;5108449;28;19910;-75
2021/09/22 10:43:28;;;;;;;;;;;32.30;53.10;;;;;;5108888;28;19988;-77
2021/09/22 10:46:00;;;;;;;;;;;32.30;53.80;;;;;;5089824;28;19954;-77
2021/09/22 10:48:25;;;;;;;;;;;31.90;53.80;;;;;;5108269;28;19915;-77
2021/09/22 10:50:52;;;;;;;;;;;31.20;52.80;;;;;;5090259;28;20289;-77
2021/09/22 10:53:30;;;;;;;;;;;30.90;53.20;;;;;;5108616;28;19907;-77
2021/09/22 10:56:00;;;;;;;;;;;30.60;52.90;;;;;;5106120;28;19904;-74
2021/09/22 10:58:31;;;;;;;;;;;30.30;53.00;;;;;;5108525;28;19931;-76
2021/09/22 11:00:56;;;;;;;;;;;30.10;52.60;;;;;;5101714;28;20389;-75
2021/09/22 11:03:40;;;;;;;;;;;29.70;52.30;;;;;;5107615;28;20368;-76
2021/09/22 11:06:07;;;;;;;;;;;29.40;52.50;;;;;;5107503;28;20346;-76
2021/09/22 11:08:34;;;;;;;;;;;29.30;53.60;;;;;;5107335;28;20546;-78
2021/09/22 11:10:59;;;;;;;;;;;29.30;53.40;;;;;;5107894;28;19915;-78
2021/09/22 11:13:31;;;;;;;;;;;29.10;53.40;;;;;;5090358;28;20530;-75
2021/09/22 11:16:08;;;;;;;;;;;29.20;54.50;;;;;;5090460;28;19912;-75
2021/09/22 11:18:37;;;;;;;;;;;29.80;54.30;;;;;;5092098;28;19950;-75
2021/09/22 11:21:03;;;;;;;;;;;30.10;53.40;;;;;;5109980;28;19958;-75
2021/09/22 11:23:30;;;;;;;;;;;30.10;53.40;;;;;;5112379;28;19994;-76
2021/09/22 11:26:25;;;;;;;;;;;30.20;52.50;;;;;;5113593;28;19926;-77
2021/09/22 11:28:52;;;;;;;;;;;29.80;51.80;;;;;;5075772;28;20361;-76
2021/09/22 11:31:18;;;;;;;;;;;28.90;51.80;;;;;;5108281;28;19915;-74
2021/09/22 11:33:44;;;;;;;;;;;28.50;52.50;;;;;;5107659;28;20383;-74
2021/09/22 11:36:10;;;;;;;;;;;28.20;53.00;;;;;;5092813;28;19915;-75
2021/09/22 11:38:36;;;;;;;;;;;28.20;53.00;;;;;;5111634;28;19989;-74
2021/09/22 11:41:02;;;;;;;;;;;27.90;53.20;;;;;;5112334;28;19911;-77
2021/09/22 11:43:28;;;;;;;;;;;27.70;53.50;;;;;;5111497;28;19908;-75
2021/09/22 11:45:58;;;;;;;;;;;27.50;53.80;;;;;;5111856;28;19926;-75
2021/09/22 11:48:38;;;;;;;;;;;27.50;54.20;;;;;;5111607;28;19953;-76
2021/09/22 11:51:07;;;;;;;;;;;27.60;54.40;;;;;;5088180;28;19903;-76
2021/09/22 11:53:33;;;;;;;;;;;27.60;54.20;;;;;;5110940;28;19922;-75
2021/09/22 11:56:00;;;;;;;;;;;27.40;53.80;;;;;;5110785;28;19952;-75
2021/09/22 11:58:27;;;;;;;;;;;26.90;53.60;;;;;;5111586;28;19968;-76
2021/09/22 12:00:53;;;;;;;;;;;26.80;54.70;;;;;;5092901;28;19903;-76
2021/09/22 12:03:20;;;;;;;;;;;27.40;55.40;;;;;;5111692;28;19911;-75
2021/09/22 12:05:46;;;;;;;;;;;27.80;55.10;;;;;;5110600;28;19904;-75
2021/09/22 12:08:12;;;;;;;;;;;28.10;54.50;;;;;;5110892;28;19918;-75
2021/09/22 12:10:44;;;;;;;;;;;28.00;54.10;;;;;;5092666;28;19912;-76
2021/09/22 12:13:10;;;;;;;;;;;27.50;53.80;;;;;;5109934;28;20303;-75
2021/09/22 12:15:35;;;;;;;;;;;27.00;53.90;;;;;;5110724;28;19912;-77
2021/09/22 12:18:01;;;;;;;;;;;26.50;54.10;;;;;;5110963;28;19918;-78
2021/09/22 12:20:27;;;;;;;;;;;26.10;54.40;;;;;;5111134;28;19915;-77
2021/09/22 12:23:03;;;;;;;;;;;25.60;54.60;;;;;;5112142;28;19911;-74
2021/09/22 12:25:30;;;;;;;;;;;25.30;55.10;;;;;;5111206;28;20004;-75
2021/09/22 12:27:56;;;;;;;;;;;25.20;55.60;;;;;;5110498;28;19917;-77
2021/09/22 12:30:29;;;;;;;;;;;25.10;55.50;;;;;;5110408;28;19908;-76
2021/09/22 12:32:56;;;;;;;;;;;25.10;55.70;;;;;;5110027;28;20432;-76
2021/09/22 12:35:22;;;;;;;;;;;25.10;55.90;;;;;;5091964;28;19983;-76
2021/09/22 12:37:58;;;;;;;;;;;25.10;55.90;;;;;;5110912;28;20292;-77
2021/09/22 12:40:31;;;;;;;;;;;25.10;56.00;;;;;;5111084;28;20003;-78
2021/09/22 12:42:58;;;;;;;;;;;25.10;55.80;;;;;;5110724;28;19929;-77
2021/09/22 12:45:25;;;;;;;;;;;25.20;56.60;;;;;;5091735;28;19904;-76
2021/09/22 12:47:59;;;;;;;;;;;25.50;56.40;;;;;;5090580;28;19930;-78
2021/09/22 12:50:31;;;;;;;;;;;25.60;55.70;;;;;;5090856;28;19910;-78
2021/09/22 12:53:03;;;;;;;;;;;25.50;55.00;;;;;;5082831;28;20276;-80
2021/09/22 12:55:28;;;;;;;;;;;25.40;55.30;;;;;;5110190;28;19904;-76
2021/09/22 12:57:58;;;;;;;;;;;25.60;56.10;;;;;;5075165;28;19915;-77
2021/09/22 13:00:27;;;;;;;;;;;26.40;57.10;;;;;;5110251;28;19910;-75
2021/09/22 13:03:05;;;;;;;;;;;27.30;57.30;;;;;;5086955;28;19918;-77
2021/09/22 13:05:38;;;;;;;;;;;28.20;56.70;;;;;;5089645;28;19908;-76
2021/09/22 13:08:08;;;;;;;;;;;28.80;55.70;;;;;;5110716;28;19951;-77
2021/09/22 13:10:50;;;;;;;;;;;29.20;55.60;;;;;;5110095;28;19908;-78
2021/09/22 13:13:16;;;;;;;;;;;29.50;54.20;;;;;;5110357;28;19923;-79
2021/09/22 13:15:41;;;;;;;;;;;29.60;53.60;;;;;;5110204;28;19904;-78
2021/09/22 13:18:07;;;;;;;;;;;29.60;52.70;;;;;;5110151;28;19915;-80
2021/09/22 13:20:33;;;;;;;;;;;29.10;52.40;;;;;;5076307;28;19907;-77
2021/09/22 13:22:59;;;;;;;;;;;28.40;52.50;;;;;;5110191;28;19950;-77
2021/09/22 13:25:24;;;;;;;;;;;28.30;53.50;;;;;;5106579;28;19944;-74
2021/09/22 13:27:50;;;;;;;;;;;28.30;54.20;;;;;;5109031;28;19916;-76
2021/09/22 13:30:18;;;;;;;;;;;28.60;54.50;;;;;;5109119;28;20002;-79
2021/09/22 13:32:43;;;;;;;;;;;28.70;53.10;;;;;;5109453;28;20041;-77
2021/09/22 13:35:09;;;;;;;;;;;28.50;51.80;;;;;;5109253;28;20351;-77
2021/09/22 13:37:35;;;;;;;;;;;28.20;51.80;;;;;;5091023;28;19915;-76
2021/09/22 13:40:00;;;;;;;;;;;27.80;51.40;;;;;;5074283;28;19911;-80
2021/09/22 13:42:26;;;;;;;;;;;27.30;51.60;;;;;;5110110;28;19908;-77
2021/09/22 13:44:51;;;;;;;;;;;26.80;51.80;;;;;;5109479;28;19907;-79
2021/09/22 13:47:17;;;;;;;;;;;26.30;52.00;;;;;;5091594;28;20512;-77
2021/09/22 13:49:42;;;;;;;;;;;26.00;52.30;;;;;;5090923;28;19912;-78
2021/09/22 13:52:08;;;;;;;;;;;25.70;52.60;;;;;;5090690;28;20261;-77
2021/09/22 13:54:34;;;;;;;;;;;25.50;52.90;;;;;;5091200;28;19986;-78
2021/09/22 13:57:01;;;;;;;;;;;25.20;53.10;;;;;;5109165;28;19923;-76
2021/09/22 13:59:27;;;;;;;;;;;25.00;53.20;;;;;;5110168;28;19911;-72
2021/09/22 14:01:53;;;;;;;;;;;24.80;53.50;;;;;;5109520;28;19907;-76
2021/09/22 14:04:18;;;;;;;;;;;24.60;53.90;;;;;;5109271;28;19936;-75
2021/09/22 14:06:44;;;;;;;;;;;24.60;54.40;;;;;;5110453;28;20354;-75
2021/09/22 14:09:09;;;;;;;;;;;24.60;54.50;;;;;;5109188;28;19911;-78
2021/09/22 14:11:35;;;;;;;;;;;24.70;54.50;;;;;;5108934;28;19915;-76
2021/09/22 14:14:05;;;;;;;;;;;24.70;54.70;;;;;;5090822;28;19915;-79